Time;durP1;ratioP1;P1;durP2;ratioP2;P2;SDS_P1;SDS_P2;PMS_P1;PMS_P2;Temp;Humidity;BMP_temperature;BMP_pressure;BME280_temperature;BME280_humidity;BME280_pressure;Samples;Min_cycle;Max_cycle;Signal;HPM_P1;HPM_P2
2022/12/14 00:01:10;;;;;;;;;21.00;14.50;;;;;1.89;57.74;99849.66;5038466;28;45432;-77
2022/12/14 00:03:36;;;;;;;;;24.25;19.50;;;;;1.88;57.51;99847.97;5020763;28;45353;-77
2022/12/14 00:06:09;;;;;;;;;28.00;21.75;;;;;1.88;57.60;99853.13;5038421;28;45527;-77
2022/12/14 00:08:34;;;;;;;;;23.75;18.25;;;;;1.89;57.61;99854.81;5037948;28;46209;-77
2022/12/14 00:10:59;;;;;;;;;35.75;22.50;;;;;1.90;57.61;99853.09;5037857;28;52811;-77
2022/12/14 00:13:25;;;;;;;;;35.75;24.25;;;;;1.91;57.80;99868.50;5037788;28;45560;-77
2022/12/14 00:15:50;;;;;;;;;29.75;21.75;;;;;1.95;57.72;99864.19;5037216;28;65192;-77
2022/12/14 00:18:15;;;;;;;;;24.50;19.50;;;;;1.94;57.73;99857.34;5037224;28;71340;-77
2022/12/14 00:20:41;;;;;;;;;28.75;21.75;;;;;1.98;57.73;99859.03;5037332;28;65425;-77
2022/12/14 00:23:06;;;;;;;;;35.75;24.50;;;;;1.98;57.50;99860.75;5037022;28;61401;-77
2022/12/14 00:25:31;;;;;;;;;30.50;19.75;;;;;1.98;57.51;99853.88;5037418;28;61660;-77
2022/12/14 00:27:57;;;;;;;;;37.00;26.00;;;;;1.97;57.21;99848.75;5019890;28;46125;-77
2022/12/14 00:30:22;;;;;;;;;28.00;16.00;;;;;1.97;57.62;99848.75;5037870;28;45396;-77
2022/12/14 00:32:48;;;;;;;;;28.25;21.00;;;;;1.95;57.67;99851.38;5037210;28;62022;-77
2022/12/14 00:35:16;;;;;;;;;29.00;24.00;;;;;1.93;57.45;99842.78;5037351;28;56048;-77
2022/12/14 00:37:41;;;;;;;;;25.25;21.25;;;;;1.91;57.46;99831.69;5037431;28;46395;-77
2022/12/14 00:40:08;;;;;;;;;25.00;19.25;;;;;1.91;57.90;99832.56;5037817;28;45462;-77
2022/12/14 00:42:34;;;;;;;;;27.75;16.00;;;;;1.91;57.86;99830.00;5019958;28;45379;-78
2022/12/14 00:44:59;;;;;;;;;27.50;19.25;;;;;1.92;57.75;99825.72;5037155;28;45352;-77
2022/12/14 00:47:25;;;;;;;;;26.50;16.50;;;;;1.94;57.91;99824.81;5019785;28;45941;-77
2022/12/14 00:49:50;;;;;;;;;30.75;20.00;;;;;1.94;57.78;99827.38;5036905;28;63612;-78
2022/12/14 00:52:16;;;;;;;;;22.75;17.00;;;;;1.97;57.94;99833.34;5019629;28;45310;-77
2022/12/14 00:54:41;;;;;;;;;17.75;13.75;;;;;1.98;58.03;99837.66;5036728;28;59930;-77
2022/12/14 00:57:07;;;;;;;;;29.75;15.75;;;;;2.00;57.87;99830.78;5036516;28;72777;-76
2022/12/14 00:59:32;;;;;;;;;24.50;20.00;;;;;1.99;57.71;99824.81;5037458;28;45472;-77
2022/12/14 01:01:57;;;;;;;;;24.00;18.75;;;;;2.01;57.49;99830.78;5019609;28;47869;-77
2022/12/14 01:04:23;;;;;;;;;29.00;21.00;;;;;1.99;57.02;99829.94;5036875;28;57411;-77
2022/12/14 01:06:50;;;;;;;;;34.00;20.00;;;;;1.98;57.48;99829.94;5019182;28;46939;-77
2022/12/14 01:09:17;;;;;;;;;25.25;20.00;;;;;1.96;57.62;99827.38;5019487;28;45831;-77
2022/12/14 01:11:43;;;;;;;;;25.75;16.50;;;;;1.96;57.84;99839.38;5037382;28;45396;-77
2022/12/14 01:14:09;;;;;;;;;19.50;15.75;;;;;1.98;57.89;99841.06;5037132;28;45541;-77
2022/12/14 01:16:34;;;;;;;;;32.25;17.25;;;;;1.99;57.90;99842.78;5019175;28;46572;-78
2022/12/14 01:19:01;;;;;;;;;27.25;21.00;;;;;2.01;57.82;99850.47;5037160;28;45439;-77
2022/12/14 01:21:27;;;;;;;;;29.75;20.75;;;;;2.03;58.03;99853.88;5036868;28;45411;-77
2022/12/14 01:23:58;;;;;;;;;20.50;12.50;;;;;2.06;57.65;99858.97;5037149;28;45524;-77
2022/12/14 01:26:25;;;;;;;;;30.50;13.50;;;;;2.06;57.32;99862.41;5037129;28;46500;-77
2022/12/14 01:28:55;;;;;;;;;26.25;19.00;;;;;2.03;57.43;99848.72;5019316;28;45350;-77
2022/12/14 01:31:21;;;;;;;;;21.50;16.00;;;;;2.03;57.86;99846.16;5037009;28;45353;-77
2022/12/14 01:33:47;;;;;;;;;19.25;18.00;;;;;2.03;57.71;99844.44;5002170;28;45544;-77
2022/12/14 01:36:19;;;;;;;;;21.75;20.00;;;;;2.04;57.88;99845.28;5035915;28;65511;-77
2022/12/14 01:38:45;;;;;;;;;27.25;15.00;;;;;2.05;57.74;99849.56;5019038;28;45874;-77
2022/12/14 01:41:31;;;;;;;;;23.25;18.00;;;;;2.08;57.70;99865.81;5036738;28;45349;-77
2022/12/14 01:44:22;;;;;;;;;24.25;15.50;;;;;2.09;57.66;99869.22;5036889;28;45349;-78
2022/12/14 01:46:52;;;;;;;;;22.00;17.50;;;;;2.09;57.90;99876.91;5036507;28;46679;-77
2022/12/14 01:49:20;;;;;;;;;27.75;20.50;;;;;2.10;57.43;99865.78;5036258;28;45352;-77
2022/12/14 01:51:51;;;;;;;;;27.50;16.50;;;;;2.11;57.62;99872.63;5036995;28;45417;-77
2022/12/14 01:54:18;;;;;;;;;20.75;14.50;;;;;2.11;57.66;99878.59;5018849;28;45410;-77
2022/12/14 01:56:44;;;;;;;;;25.75;19.00;;;;;2.07;57.53;99856.38;5000936;28;48796;-77
2022/12/14 01:59:14;;;;;;;;;20.50;13.25;;;;;2.04;58.09;99853.81;5017723;28;69819;-77
2022/12/14 02:01:40;;;;;;;;;30.00;16.00;;;;;2.03;58.36;99857.28;5018842;28;45345;-77
2022/12/14 02:04:06;;;;;;;;;19.75;13.00;;;;;2.04;58.48;99863.25;5035402;28;65896;-77
2022/12/14 02:06:34;;;;;;;;;26.25;16.50;;;;;2.05;58.25;99852.13;5017815;28;64999;-77
2022/12/14 02:09:02;;;;;;;;;24.00;16.50;;;;;2.05;58.58;99858.13;5018737;28;45901;-77
2022/12/14 02:11:58;;;;;;;;;30.75;21.00;;;;;2.06;58.68;99848.69;5018573;28;45454;-77
2022/12/14 02:14:24;;;;;;;;;20.25;14.75;;;;;2.03;59.21;99847.00;4994156;28;45500;-77
2022/12/14 02:16:50;;;;;;;;;23.25;15.50;;;;;2.03;58.42;99844.44;4977652;28;45635;-77
2022/12/14 02:19:15;;;;;;;;;22.25;13.00;;;;;2.00;59.12;99825.66;4977452;28;45353;-77
2022/12/14 02:22:25;;;;;;;;;26.00;15.75;;;;;1.96;59.37;99809.41;4993644;28;60247;-77
2022/12/14 02:25:03;;;;;;;;;26.25;18.00;;;;;1.91;60.08;99813.72;4935709;28;45524;-77
2022/12/14 02:27:43;;;;;;;;;22.50;18.00;;;;;1.88;60.18;99790.69;4935774;28;45311;-77
2022/12/14 02:30:20;;;;;;;;;26.50;17.00;;;;;1.82;61.30;99778.75;4935842;28;45518;-77
2022/12/14 02:33:09;;;;;;;;;19.00;16.25;;;;;1.79;61.30;99771.06;4919383;28;45413;-77
2022/12/14 02:35:58;;;;;;;;;23.00;17.00;;;;;1.71;62.06;99763.44;4935754;28;45372;-77
2022/12/14 02:38:30;;;;;;;;;27.00;20.50;;;;;1.64;62.94;99773.78;4919523;28;46262;-77
2022/12/14 02:41:25;;;;;;;;;25.75;18.50;;;;;1.57;62.78;99779.81;4916329;28;45369;-77
2022/12/14 02:44:02;;;;;;;;;23.50;16.25;;;;;1.51;62.82;99791.81;4916492;28;45358;-77
2022/12/14 02:46:46;;;;;;;;;26.50;22.00;;;;;1.45;63.74;99783.28;4916223;28;45501;-78
2022/12/14 02:49:27;;;;;;;;;27.50;17.75;;;;;1.43;64.58;99767.06;4916166;28;45650;-77
2022/12/14 02:52:03;;;;;;;;;26.00;17.25;;;;;1.45;64.85;99757.66;4931727;28;45331;-77
2022/12/14 02:54:37;;;;;;;;;21.50;16.00;;;;;1.45;64.51;99761.09;4954636;28;45418;-77
2022/12/14 02:57:26;;;;;;;;;35.50;16.00;;;;;1.44;64.69;99754.25;4938533;28;45392;-77
2022/12/14 02:59:55;;;;;;;;;29.25;19.25;;;;;1.44;65.06;99749.13;4955482;28;45554;-77
2022/12/14 03:02:21;;;;;;;;;34.50;17.00;;;;;1.44;64.75;99741.41;4997598;28;45354;-76
2022/12/14 03:04:50;;;;;;;;;32.75;21.75;;;;;1.45;64.97;99738.00;4998055;28;45583;-77
2022/12/14 03:07:43;;;;;;;;;17.50;15.00;;;;;1.47;65.85;99749.09;5015559;28;45424;-77
2022/12/14 03:10:21;;;;;;;;;23.75;18.00;;;;;1.49;65.19;99756.78;4996328;28;46132;-77
2022/12/14 03:12:52;;;;;;;;;23.75;18.00;;;;;1.51;65.27;99758.47;5021575;28;45849;-76
2022/12/14 03:15:19;;;;;;;;;17.00;16.50;;;;;1.54;65.56;99750.75;5017589;28;45367;-77
2022/12/14 03:17:47;;;;;;;;;24.75;19.50;;;;;1.54;65.37;99760.13;5035583;28;45475;-77
2022/12/14 03:20:18;;;;;;;;;23.00;16.00;;;;;1.56;65.31;99758.44;5017485;28;46117;-77
2022/12/14 03:22:50;;;;;;;;;26.25;18.00;;;;;1.57;65.48;99749.88;5035305;28;45356;-77
2022/12/14 03:25:21;;;;;;;;;30.75;19.25;;;;;1.57;65.43;99751.59;5017628;28;45533;-77
2022/12/14 03:28:02;;;;;;;;;21.00;17.50;;;;;1.55;65.33;99749.03;5017738;28;45258;-77
2022/12/14 03:30:29;;;;;;;;;24.00;16.00;;;;;1.55;65.22;99749.03;5017036;28;46483;-77
2022/12/14 03:33:00;;;;;;;;;25.50;16.00;;;;;1.56;65.53;99750.75;5000783;28;45864;-77
2022/12/14 03:35:36;;;;;;;;;23.75;18.75;;;;;1.57;65.90;99749.03;5017621;28;45419;-77
2022/12/14 03:38:24;;;;;;;;;24.25;16.00;;;;;1.56;65.49;99758.44;5017483;28;45449;-77
2022/12/14 03:41:01;;;;;;;;;30.50;20.00;;;;;1.58;65.80;99766.09;5023970;28;47477;-77
2022/12/14 03:43:54;;;;;;;;;20.50;15.75;;;;;1.61;65.69;99755.81;5017336;28;45976;-77
2022/12/14 03:46:22;;;;;;;;;22.25;16.75;;;;;1.64;65.77;99754.09;5017184;28;45370;-77
2022/12/14 03:48:51;;;;;;;;;28.25;18.75;;;;;1.67;65.76;99740.38;5035193;28;45470;-77
2022/12/14 03:51:29;;;;;;;;;20.75;19.25;;;;;1.67;65.43;99735.25;5017100;28;46192;-77
2022/12/14 03:54:10;;;;;;;;;25.00;16.00;;;;;1.65;65.67;99731.84;5017218;28;45355;-77
2022/12/14 03:57:02;;;;;;;;;23.75;15.50;;;;;1.64;65.15;99722.47;5035024;28;45344;-77
2022/12/14 03:59:47;;;;;;;;;24.25;16.50;;;;;1.58;65.41;99727.63;5016934;28;45424;-77
2022/12/14 04:02:27;;;;;;;;;26.00;15.50;;;;;1.56;65.52;99732.78;5017039;28;46373;-77
2022/12/14 04:04:58;;;;;;;;;23.00;16.00;;;;;1.53;66.23;99728.53;5017195;28;45975;-77
2022/12/14 04:08:01;;;;;;;;;24.75;16.50;;;;;1.53;65.73;99730.25;5017196;28;45362;-77
2022/12/14 04:18:59;;;;;;;;;23.00;15.75;;;;;1.45;66.10;99714.94;4979066;28;45466;-77
2022/12/14 04:21:38;;;;;;;;;20.25;17.25;;;;;1.44;65.95;99708.06;4996140;28;45366;-77
2022/12/14 04:27:28;;;;;;;;;21.25;16.50;;;;;1.43;66.59;99697.81;4982183;28;45579;-77
2022/12/14 04:29:59;;;;;;;;;18.75;12.75;;;;;1.42;66.42;99688.44;4979290;28;45373;-77
2022/12/14 04:32:37;;;;;;;;;23.00;18.00;;;;;1.39;66.44;99691.88;4980144;28;45537;-77
2022/12/14 04:35:10;;;;;;;;;28.75;20.75;;;;;1.39;66.31;99714.09;4979539;28;46321;-77
2022/12/14 04:37:38;;;;;;;;;18.25;14.00;;;;;1.39;66.71;99714.09;4995781;28;45980;-77
2022/12/14 04:40:16;;;;;;;;;21.75;18.00;;;;;1.42;66.75;99712.38;4979452;28;45500;-77
2022/12/14 04:42:50;;;;;;;;;20.00;15.25;;;;;1.42;66.56;99716.66;4977135;28;45338;-78
2022/12/14 04:45:29;;;;;;;;;17.75;15.00;;;;;1.43;66.63;99721.78;4966427;28;46375;-77
2022/12/14 04:48:36;;;;;;;;;25.00;17.50;;;;;1.47;66.41;99717.47;4999830;28;45970;-77
2022/12/14 04:51:11;;;;;;;;;22.00;15.50;;;;;1.48;66.98;99717.44;5016583;28;45262;-77
2022/12/14 04:53:38;;;;;;;;;24.75;20.00;;;;;1.50;66.24;99717.44;5000237;28;45519;-77
2022/12/14 04:56:08;;;;;;;;;24.00;15.75;;;;;1.46;66.50;99729.44;4999555;28;46140;-77
2022/12/14 04:58:34;;;;;;;;;23.50;13.75;;;;;1.46;66.79;99728.59;5017358;28;45412;-77
2022/12/14 05:01:18;;;;;;;;;31.50;21.00;;;;;1.46;66.47;99734.56;4999810;28;45318;-77
2022/12/14 05:03:53;;;;;;;;;25.50;18.75;;;;;1.47;66.69;99735.44;5017753;28;45318;-77
2022/12/14 05:06:31;;;;;;;;;19.50;16.50;;;;;1.48;66.55;99740.53;4999626;28;46529;-77
2022/12/14 05:09:13;;;;;;;;;26.75;16.25;;;;;1.47;66.85;99728.59;5017440;28;45302;-77
2022/12/14 05:11:46;;;;;;;;;30.00;18.00;;;;;1.47;66.43;99720.03;4999546;28;45357;-77
2022/12/14 05:14:18;;;;;;;;;29.00;17.50;;;;;1.46;66.72;99718.34;5017604;28;45530;-77
2022/12/14 05:16:44;;;;;;;;;21.00;15.00;;;;;1.46;66.83;99719.16;5019313;28;47423;-77
2022/12/14 05:19:09;;;;;;;;;25.50;16.75;;;;;1.49;66.83;99711.47;5037183;28;45483;-77
2022/12/14 05:21:47;;;;;;;;;22.25;16.50;;;;;1.49;66.69;99711.47;5019542;28;45370;-77
2022/12/14 05:24:13;;;;;;;;;20.50;15.25;;;;;1.46;67.12;99698.66;5004408;28;45544;-77
2022/12/14 05:26:38;;;;;;;;;23.00;13.50;;;;;1.49;67.12;99695.22;5036687;28;47005;-77
2022/12/14 05:29:04;;;;;;;;;18.25;17.00;;;;;1.49;66.87;99692.66;5037048;28;47512;-77
2022/12/14 05:31:29;;;;;;;;;20.50;12.75;;;;;1.52;67.78;99695.19;5036627;28;49361;-78
2022/12/14 05:33:55;;;;;;;;;17.25;12.25;;;;;1.53;67.15;99702.03;5037022;28;45380;-77
2022/12/14 05:36:20;;;;;;;;;22.75;16.00;;;;;1.54;67.08;99699.47;5036391;28;56752;-77
2022/12/14 05:38:46;;;;;;;;;23.75;16.00;;;;;1.56;66.68;99709.72;5036900;28;45311;-77
2022/12/14 05:41:11;;;;;;;;;24.75;17.00;;;;;1.54;66.58;99712.28;5035781;28;62164;-77
2022/12/14 05:43:36;;;;;;;;;29.00;18.25;;;;;1.51;66.51;99714.03;5036254;28;61866;-77
2022/12/14 05:46:03;;;;;;;;;24.50;20.50;;;;;1.49;66.91;99721.72;5036501;28;54033;-77
2022/12/14 05:48:29;;;;;;;;;27.75;18.00;;;;;1.49;67.08;99720.88;5018963;28;45298;-77
2022/12/14 05:50:54;;;;;;;;;23.00;16.50;;;;;1.48;67.08;99724.28;5036768;28;45360;-77
2022/12/14 05:53:20;;;;;;;;;34.00;18.25;;;;;1.50;67.19;99733.66;5035942;28;66158;-77
2022/12/14 05:55:49;;;;;;;;;23.00;15.50;;;;;1.49;66.87;99736.28;5035557;28;57976;-77
2022/12/14 05:58:15;;;;;;;;;30.75;18.50;;;;;1.48;67.56;99737.97;5036515;28;45245;-76
2022/12/14 06:00:40;;;;;;;;;23.00;18.00;;;;;1.51;67.54;99748.19;5036713;28;45303;-77
2022/12/14 06:03:06;;;;;;;;;17.50;13.50;;;;;1.54;67.14;99753.31;5035861;28;63556;-77
2022/12/14 06:05:32;;;;;;;;;16.75;10.00;;;;;1.53;67.82;99751.59;5035906;28;58188;-77
2022/12/14 06:07:57;;;;;;;;;19.75;14.75;;;;;1.55;66.93;99752.44;5036431;28;45223;-77
2022/12/14 06:10:22;;;;;;;;;27.25;16.50;;;;;1.55;67.48;99746.47;5035518;28;63173;-77
2022/12/14 06:12:48;;;;;;;;;21.25;16.50;;;;;1.54;67.18;99744.75;5036199;28;45317;-77
2022/12/14 06:15:13;;;;;;;;;21.25;18.00;;;;;1.56;67.24;99748.19;5036279;28;47023;-76
2022/12/14 06:17:43;;;;;;;;;23.25;14.00;;;;;1.55;67.10;99755.00;5035425;28;63686;-76
2022/12/14 06:20:09;;;;;;;;;26.75;15.50;;;;;1.50;66.93;99748.22;5036444;28;45437;-76
2022/12/14 06:22:35;;;;;;;;;18.75;15.00;;;;;1.48;67.45;99750.78;5036261;28;45436;-76
2022/12/14 06:25:00;;;;;;;;;18.00;15.00;;;;;1.51;67.58;99749.94;5017736;28;46074;-77
2022/12/14 06:27:25;;;;;;;;;29.50;17.25;;;;;1.56;67.08;99753.31;5037095;28;45440;-78
2022/12/14 06:29:51;;;;;;;;;32.25;19.50;;;;;1.58;67.00;99750.72;5018331;28;45338;-78
2022/12/14 06:32:16;;;;;;;;;32.00;18.50;;;;;1.59;66.90;99744.72;5035571;28;56329;-77
2022/12/14 06:34:43;;;;;;;;;25.50;15.00;;;;;1.61;67.08;99741.28;5017868;28;54754;-78
2022/12/14 06:37:09;;;;;;;;;26.75;19.00;;;;;1.63;67.14;99744.69;5017939;28;45841;-78
2022/12/14 06:39:34;;;;;;;;;22.00;18.25;;;;;1.64;66.95;99746.41;5017986;28;45410;-78
2022/12/14 06:42:00;;;;;;;;;25.00;15.50;;;;;1.60;66.70;99749.84;5035144;28;45420;-78
2022/12/14 06:44:25;;;;;;;;;26.75;15.75;;;;;1.59;67.40;99749.88;5035192;28;68241;-78
2022/12/14 06:46:50;;;;;;;;;29.50;17.00;;;;;1.58;66.80;99751.59;5035848;28;45520;-78
2022/12/14 06:49:16;;;;;;;;;23.75;17.50;;;;;1.56;67.44;99758.44;5035979;28;45333;-78
2022/12/14 06:51:42;;;;;;;;;22.25;17.00;;;;;1.57;67.49;99754.16;5035801;28;45559;-77
2022/12/14 06:54:09;;;;;;;;;22.50;16.50;;;;;1.56;67.64;99753.31;5035247;28;45888;-78
2022/12/14 06:56:35;;;;;;;;;18.75;13.50;;;;;1.56;67.82;99743.06;5035628;28;45310;-78
2022/12/14 06:59:01;;;;;;;;;22.75;15.25;;;;;1.56;68.15;99748.19;5035856;28;45368;-77
2022/12/14 07:01:28;;;;;;;;;20.50;13.00;;;;;1.57;68.10;99761.84;5035560;28;45414;-77
2022/12/14 07:03:55;;;;;;;;;15.50;14.00;;;;;1.58;68.05;99764.41;5017808;28;47299;-77
2022/12/14 07:06:22;;;;;;;;;15.75;15.00;;;;;1.62;67.87;99775.50;5034364;28;45445;-77
2022/12/14 07:08:48;;;;;;;;;25.50;17.00;;;;;1.61;68.27;99787.44;5035396;28;45381;-78
2022/12/14 07:11:14;;;;;;;;;18.00;15.00;;;;;1.61;67.69;99781.47;5035727;28;45448;-77
2022/12/14 07:13:40;;;;;;;;;19.75;17.50;;;;;1.58;67.24;99782.38;5035236;28;45675;-78
2022/12/14 07:16:06;;;;;;;;;29.75;17.50;;;;;1.53;67.17;99786.66;5035385;28;45989;-77
2022/12/14 07:18:32;;;;;;;;;20.25;16.00;;;;;1.48;67.44;99794.38;5035560;28;45475;-78
2022/12/14 07:21:08;;;;;;;;;18.25;15.50;;;;;1.44;67.30;99802.97;5017647;28;45503;-78
2022/12/14 07:23:36;;;;;;;;;29.00;18.25;;;;;1.41;67.55;99797.00;5017364;28;46198;-77
2022/12/14 07:26:03;;;;;;;;;25.75;19.25;;;;;1.34;68.00;99801.34;5017767;28;45399;-78
2022/12/14 07:28:29;;;;;;;;;28.25;19.00;;;;;1.32;68.22;99814.16;5035510;28;45465;-78
2022/12/14 07:30:55;;;;;;;;;16.50;15.00;;;;;1.31;68.21;99822.69;5035370;28;45365;-78
2022/12/14 07:33:20;;;;;;;;;21.00;18.25;;;;;1.30;68.48;99820.13;5035064;28;45465;-78
2022/12/14 07:35:46;;;;;;;;;29.50;19.00;;;;;1.25;68.75;99827.88;5035268;28;45249;-78
2022/12/14 07:38:11;;;;;;;;;21.00;16.00;;;;;1.23;68.80;99831.31;5034209;28;57762;-78
2022/12/14 07:40:37;;;;;;;;;23.50;15.00;;;;;1.20;68.40;99832.16;5016876;28;57548;-78
2022/12/14 07:43:02;;;;;;;;;23.00;18.50;;;;;1.17;69.21;99832.22;5035471;28;47203;-78
2022/12/14 07:45:27;;;;;;;;;24.75;15.75;;;;;1.15;68.85;99832.22;5034501;28;61534;-78
2022/12/14 07:47:53;;;;;;;;;27.75;18.50;;;;;1.14;68.62;99827.94;5034551;28;58007;-77
2022/12/14 07:50:18;;;;;;;;;19.00;13.00;;;;;1.14;68.90;99827.09;5034468;28;59612;-79
2022/12/14 07:52:44;;;;;;;;;29.50;21.00;;;;;1.14;69.22;99833.06;5016013;28;65969;-80
2022/12/14 07:55:09;;;;;;;;;20.50;12.00;;;;;1.16;68.96;99833.03;5036787;28;45368;-79
2022/12/14 07:57:34;;;;;;;;;21.25;13.00;;;;;1.15;69.20;99828.75;5020738;28;45496;-79
2022/12/14 08:00:00;;;;;;;;;23.75;15.75;;;;;1.18;69.25;99831.31;5037845;28;56998;-79
2022/12/14 08:02:25;;;;;;;;;20.00;18.00;;;;;1.19;69.36;99830.47;5037498;28;67805;-80
2022/12/14 08:04:50;;;;;;;;;23.00;17.50;;;;;1.23;69.12;99832.16;5038004;28;48215;-80
2022/12/14 08:07:16;;;;;;;;;24.25;17.50;;;;;1.27;69.24;99833.84;5019808;28;52468;-80
2022/12/14 08:09:41;;;;;;;;;25.50;13.00;;;;;1.34;69.06;99835.50;5037454;28;48870;-77
2022/12/14 08:12:06;;;;;;;;;22.00;17.25;;;;;1.41;69.49;99840.59;5034640;28;59300;-79
2022/12/14 08:14:32;;;;;;;;;27.00;18.00;;;;;1.44;69.62;99838.03;5047071;28;61306;-80
2022/12/14 08:16:57;;;;;;;;;26.00;16.50;;;;;1.49;69.22;99838.84;5038032;28;45457;-80
2022/12/14 08:19:22;;;;;;;;;27.50;14.00;;;;;1.50;68.56;99838.81;5036383;28;57792;-79
2022/12/14 08:21:48;;;;;;;;;17.25;16.00;;;;;1.50;68.85;99846.50;5036921;28;45908;-79
2022/12/14 08:24:13;;;;;;;;;22.75;17.00;;;;;1.50;68.56;99843.09;5037689;28;45440;-78
2022/12/14 08:26:39;;;;;;;;;30.25;18.00;;;;;1.52;68.73;99846.50;5019791;28;45325;-80
2022/12/14 08:29:05;;;;;;;;;23.00;17.00;;;;;1.57;69.08;99841.38;5037319;28;50821;-80
2022/12/14 08:31:31;;;;;;;;;21.50;15.50;;;;;1.61;68.79;99845.59;5036083;28;46285;-80
2022/12/14 08:33:58;;;;;;;;;29.25;18.75;;;;;1.67;69.31;99843.00;5019238;28;45868;-81
2022/12/14 08:36:26;;;;;;;;;31.00;21.25;;;;;1.74;69.07;99852.34;5021235;28;45476;-80
2022/12/14 08:38:53;;;;;;;;;26.50;18.00;;;;;1.81;69.12;99845.47;5016377;28;45315;-79
2022/12/14 08:41:19;;;;;;;;;19.75;15.00;;;;;1.87;68.84;99837.72;5036527;28;46478;-79
2022/12/14 08:43:50;;;;;;;;;29.50;21.75;;;;;1.89;68.59;99841.97;5036571;28;45332;-79
2022/12/14 08:46:15;;;;;;;;;24.00;15.00;;;;;1.94;68.70;99860.75;5037468;28;45281;-80
2022/12/14 08:48:41;;;;;;;;;31.00;20.00;;;;;2.02;68.70;99854.72;5034538;28;45602;-80
2022/12/14 08:51:08;;;;;;;;;20.25;13.00;;;;;2.09;68.64;99856.38;5034622;28;46184;-81
2022/12/14 08:53:34;;;;;;;;;23.50;18.25;;;;;2.18;68.54;99852.88;5019754;28;45545;-80
2022/12/14 08:56:04;;;;;;;;;39.00;26.50;;;;;2.25;68.05;99864.81;5017372;28;45493;-81
2022/12/14 08:58:29;;;;;;;;;30.50;21.75;;;;;2.28;68.20;99873.31;5030714;28;45586;-80
2022/12/14 09:01:06;;;;;;;;;19.00;16.50;;;;;2.31;68.16;99870.72;5035372;28;65607;-80
2022/12/14 09:03:31;;;;;;;;;29.00;19.00;;;;;2.33;67.54;99870.72;5036507;28;46031;-80
2022/12/14 09:06:01;;;;;;;;;30.75;18.00;;;;;2.37;67.60;99866.41;5031154;28;45849;-79
2022/12/14 09:08:27;;;;;;;;;24.50;15.25;;;;;2.39;67.07;99872.38;5024129;28;45651;-80
2022/12/14 09:10:52;;;;;;;;;21.25;17.75;;;;;2.38;67.02;99874.09;5031995;28;63065;-80
2022/12/14 09:13:17;;;;;;;;;21.75;19.00;;;;;2.37;67.11;99881.81;4997632;28;45439;-81
2022/12/14 09:15:43;;;;;;;;;18.50;15.00;;;;;2.38;66.80;99892.06;5028389;28;45474;-80
2022/12/14 09:18:08;;;;;;;;;27.75;19.00;;;;;2.41;66.43;99892.03;5018662;28;45525;-81
2022/12/14 09:20:34;;;;;;;;;30.00;18.25;;;;;2.46;66.63;99897.97;5035696;28;45840;-81
2022/12/14 09:22:59;;;;;;;;;23.75;17.00;;;;;2.54;66.25;99899.63;5035213;28;61311;-81
2022/12/14 09:25:24;;;;;;;;;23.50;18.25;;;;;2.56;66.08;99913.31;5035045;28;53514;-81
2022/12/14 09:27:50;;;;;;;;;29.50;18.00;;;;;2.61;66.19;99912.41;5034684;28;46903;-80
2022/12/14 09:30:15;;;;;;;;;36.25;23.00;;;;;2.68;66.68;99910.63;5035092;28;54613;-80
2022/12/14 09:32:42;;;;;;;;;32.50;21.25;;;;;2.77;66.76;99913.13;5033810;28;45778;-80
2022/12/14 09:35:08;;;;;;;;;25.50;23.50;;;;;2.84;65.87;99922.47;5035831;28;45344;-80
2022/12/14 09:37:33;;;;;;;;;66.00;46.00;;;;;2.90;65.98;99916.41;5033981;28;45525;-80
2022/12/14 09:39:59;;;;;;;;;52.75;33.25;;;;;2.97;65.62;99920.63;5033793;28;46092;-80
2022/12/14 09:42:50;;;;;;;;;32.50;28.50;;;;;3.05;65.69;99916.22;5016927;28;54442;-80
2022/12/14 09:45:21;;;;;;;;;37.75;24.00;;;;;3.15;65.02;99924.69;5000890;28;45411;-81
2022/12/14 09:47:57;;;;;;;;;31.00;21.75;;;;;3.19;64.78;99922.94;5017514;28;45453;-80
2022/12/14 09:50:22;;;;;;;;;36.25;25.75;;;;;3.20;64.55;99922.91;5017190;28;46711;-80
2022/12/14 09:52:53;;;;;;;;;24.75;21.25;;;;;3.24;64.28;99919.44;5016939;28;51929;-81
2022/12/14 09:55:26;;;;;;;;;31.50;15.75;;;;;3.25;63.70;99921.16;5017137;28;45471;-80
2022/12/14 09:57:57;;;;;;;;;28.75;21.75;;;;;3.16;63.11;99921.25;5016372;28;45600;-80
2022/12/14 10:00:22;;;;;;;;;30.50;21.75;;;;;3.12;63.50;99927.31;5017339;28;47307;-80
2022/12/14 10:03:01;;;;;;;;;32.00;24.00;;;;;3.13;63.50;99920.44;5016823;28;45333;-80
2022/12/14 10:05:33;;;;;;;;;27.25;21.75;;;;;3.16;63.24;99922.97;5021866;28;45601;-80
2022/12/14 10:08:21;;;;;;;;;26.25;21.00;;;;;3.20;63.46;99920.34;5014178;28;45431;-80
2022/12/14 10:10:55;;;;;;;;;36.75;24.00;;;;;3.36;63.67;99925.31;5012162;28;47464;-80
2022/12/14 10:13:39;;;;;;;;;22.75;19.00;;;;;3.51;63.63;99927.69;5034648;28;45548;-80
2022/12/14 10:16:41;;;;;;;;;24.25;14.50;;;;;3.59;63.39;99936.16;5043134;28;45442;-80
2022/12/14 10:19:39;;;;;;;;;26.25;20.00;;;;;3.68;62.36;99938.59;5035592;28;45405;-80
2022/12/14 10:22:11;;;;;;;;;26.50;21.75;;;;;3.73;62.05;99933.38;4965815;28;45476;-80
2022/12/14 10:24:43;;;;;;;;;29.75;22.75;;;;;3.79;62.15;99928.16;4953092;28;45944;-80
2022/12/14 10:27:10;;;;;;;;;32.50;22.00;;;;;3.82;61.72;99932.41;4955221;28;45542;-80
2022/12/14 10:29:48;;;;;;;;;30.00;19.50;;;;;3.84;61.68;99928.94;4953405;28;45562;-80
2022/12/14 10:32:29;;;;;;;;;30.75;25.25;;;;;3.86;61.79;99926.34;4954495;28;46567;-80
2022/12/14 10:34:54;;;;;;;;;29.50;21.50;;;;;3.91;61.69;99932.28;4955449;28;45953;-81
2022/12/14 10:37:31;;;;;;;;;35.75;26.00;;;;;3.91;61.26;99926.28;4973234;28;45342;-80
2022/12/14 10:40:08;;;;;;;;;33.00;24.50;;;;;3.86;60.91;99931.50;4946069;28;45426;-80
2022/12/14 10:42:48;;;;;;;;;44.00;33.50;;;;;3.81;61.21;99936.72;4968538;28;46386;-80
2022/12/14 10:45:17;;;;;;;;;33.75;29.50;;;;;3.80;61.00;99935.00;4963033;28;45527;-80
2022/12/14 10:48:11;;;;;;;;;23.25;17.50;;;;;3.84;61.62;99931.50;4956311;28;45364;-80
2022/12/14 10:51:18;;;;;;;;;31.25;22.75;;;;;3.85;61.19;99934.97;4962638;28;45632;-81
2022/12/14 10:54:01;;;;;;;;;38.00;25.50;;;;;3.91;61.22;99942.59;4965025;28;46698;-80
2022/12/14 10:56:30;;;;;;;;;30.75;26.75;;;;;4.05;61.52;99939.81;4949958;28;46073;-80
2022/12/14 10:59:25;;;;;;;;;37.00;22.50;;;;;4.23;60.91;99936.09;4974721;28;45415;-80
2022/12/14 11:02:00;;;;;;;;;27.00;23.50;;;;;4.56;60.82;99946.75;5028156;28;45399;-80
2022/12/14 11:04:32;;;;;;;;;34.25;29.25;;;;;4.86;60.11;99942.75;5031577;28;46396;-80
2022/12/14 11:07:02;;;;;;;;;36.75;21.00;;;;;4.98;59.60;99942.53;5016198;28;45481;-80
2022/12/14 11:09:28;;;;;;;;;35.25;26.50;;;;;5.04;59.02;99934.69;5016394;28;45420;-81
2022/12/14 11:11:57;;;;;;;;;28.50;19.75;;;;;5.03;59.08;99938.16;5036737;28;45619;-80
2022/12/14 11:14:25;;;;;;;;;22.75;20.50;;;;;4.93;58.60;99928.03;5024837;28;46213;-78
2022/12/14 11:16:51;;;;;;;;;45.50;23.00;;;;;4.81;57.68;99926.50;5014587;28;45492;-80
2022/12/14 11:19:19;;;;;;;;;28.75;21.50;;;;;4.68;57.76;99933.66;5025321;28;45391;-81
2022/12/14 11:21:45;;;;;;;;;34.25;20.25;;;;;4.62;57.82;99929.44;5034125;28;45642;-80
2022/12/14 11:24:26;;;;;;;;;33.00;21.75;;;;;4.61;57.63;99932.06;5022329;28;45661;-81
2022/12/14 11:26:53;;;;;;;;;24.25;21.75;;;;;4.57;57.44;99933.81;5001618;28;45745;-81
2022/12/14 11:29:22;;;;;;;;;30.75;24.25;;;;;4.52;57.58;99929.63;5035923;28;45248;-81
2022/12/14 11:31:51;;;;;;;;;33.50;20.50;;;;;4.60;57.97;99941.50;5031907;28;45398;-81
2022/12/14 11:34:33;;;;;;;;;34.00;28.50;;;;;4.76;57.99;99944.66;5010534;28;47063;-81
2022/12/14 11:37:13;;;;;;;;;22.25;20.25;;;;;5.01;57.67;99945.09;5021443;28;45410;-81
2022/12/14 11:39:41;;;;;;;;;32.25;21.50;;;;;5.17;56.47;99949.94;5025652;28;45405;-80
2022/12/14 11:42:14;;;;;;;;;28.50;19.25;;;;;5.28;55.93;99954.91;5037273;28;45298;-80
2022/12/14 11:44:39;;;;;;;;;27.25;19.75;;;;;5.29;55.83;99949.69;4987444;28;47062;-80
2022/12/14 11:47:11;;;;;;;;;22.50;19.50;;;;;5.24;56.04;99961.84;5027040;28;60023;-81
2022/12/14 11:49:37;;;;;;;;;30.75;24.50;;;;;5.16;55.15;99954.25;5013798;28;45393;-81
2022/12/14 11:52:12;;;;;;;;;22.67;19.33;;;;;5.24;55.41;99936.03;5019179;28;45556;-81